עמוד ראשי
METAR-TAF:

METAR-TAF

שדות תעופה :

Winston Field

Snyder, טקסס, ארצות הברית

קו רוחב: 32-41-36N, קו אורך: 100-57-01W, גובה: 741מטר

תצפית מזג אוויר נוכחית

הדו"ח נערך לפני 37דקות, בשעה 12:15 UTC
רוח רגועה
טמפרטורת 21 צלסיוס
לחות 69%
לחץ 1023 hPa
ראות: 16.1קילומטר
שמיים נקיים

METAR: KSNK 251215Z AUTO 00000KT 10SM CLR 21/15 A3021 RMK AO2 T02110152

זמן: 07:52 (12:52 UTC)


TAF: חסר

תצפיות ותחזיות מזג אוויר לגבי יותר מ- 4,000 שדות תעופה ברחבי העולם. דוחות METAR ו- TAF.

התחנות הזמינות מסומנות בנקודות צהובות ואדומות על גבי המפה.

העבר את העכבר לנקודה הצבעונית על מנת לראות את שם התחנה.

לאחר מכן, לחץ כדי לראות את תוכן ואת תחזיות מזג האוויר.

כדי לשנות את המפה: לחץ על הכפתורים הירוקים עם הפלוס השחור כדי להתקרב; על הכפתור הירוק עם המקף כדי להתרחק; או בחיצים הירוקים למפות סמוכות.


METAR-TAF: